Hikone, Japan

8:31 PM JST on July 30, 2016 (GMT +0900)
Hatchome Nanboku Dori | | Change Station

Elev 295 ft 35.23 °N, 136.22 °E | Updated 2 seconds ago

Partly Cloudy
Partly Cloudy
88.5 °F
Feels Like 94 °F
N
0.6
Wind Variable Wind from SE
Gusts 1.9 mph

Today
High -- | Low -- °F
--% Chance of Precip.
Yesterday
High -- | Low -- °F
Precip. -- in
Pressure 29.89 in
Visibility 6.2 miles
Clouds Few 2500 ft
Heat Index 94 °F
Dew Point 71 °F
Humidity 56%
Rainfall in
Snow Depth Not available.
5:02 AM 7:00 PM
Waning Crescent, 14% visible
METAR RJGG 301100Z 14008KT 9999 FEW025 BKN/// 26/20 Q1012 NOSIG
Pressure 29.89 in
Visibility 6.2 miles
Clouds Few 2500 ft
Heat Index 94 °F
Dew Point 71 °F
Humidity 56%
Rainfall in
Snow Depth Not available.
5:02 AM 7:00 PM
Waning Crescent, 14% visible
METAR RJGG 301100Z 14008KT 9999 FEW025 BKN/// 26/20 Q1012 NOSIG

10-Day Weather Forecast

No radar image for this location.
×

Almanac

Astronomy

Jul. 30, 2016 Rise Set
Actual Time
Civil Twilight
Nautical Twilight
Astronomical Twilight
Moon
Length of Visible Light
Length of Day
Tomorrow will be .
, % of the Moon is Illuminated

Today's Extremes

Country Highs Country Lows

Community

WunderPhotos

Upload Photos

1,928,539 photos uploaded!

WunderBlog® & News

Nearby

Air Quality

  Air Quality AQ Index Pollutant
Not available.

Snow Depth

Station Depth Elevation

Earthquake Activity

City Distance Mag. Time & Date
Minimum magnitude displayed is 2.5.

Coastal Water Temperatures

Place Temperature

Stations

Nearby Weather Stations

Station Location Temp. Windchill Dew Point Humidity Wind Precip. Elev Updated Type